Search for the current weather situation

Metar

Metar
TNCB 231255Z 09018KT 070V130 9999 SCT020 29/23 Q1014
Decoded Metar

TAF

TAF
TNCB 231255Z 09018KT 070V130 9999 SCT020 29/23 Q1014
Decoded TAF
Top